createdAt,value
2023-03-29T00:01:36.164Z,43.33
2023-03-29T00:04:01.131Z,43.38
2023-03-29T00:06:32.067Z,43.35
2023-03-29T00:09:04.737Z,43.39
2023-03-29T00:11:37.842Z,43.45
2023-03-29T00:14:11.005Z,43.39
2023-03-29T00:16:44.096Z,43.53
2023-03-29T00:19:17.057Z,43.54
2023-03-29T00:21:50.237Z,43.45
2023-03-29T00:24:23.860Z,43.52
2023-03-29T00:26:57.118Z,43.48
2023-03-29T00:29:29.857Z,43.53
2023-03-29T00:32:02.736Z,43.57
2023-03-29T00:34:36.099Z,43.59
2023-03-29T00:37:09.022Z,43.59
2023-03-29T00:39:41.954Z,43.61
2023-03-29T00:42:15.093Z,43.61
2023-03-29T00:44:48.177Z,43.62
2023-03-29T00:47:21.070Z,43.61
2023-03-29T00:49:54.124Z,43.62
2023-03-29T00:52:26.889Z,43.62
2023-03-29T00:55:00.164Z,43.69
2023-03-29T00:57:33.158Z,43.66
2023-03-29T01:00:06.009Z,43.70
2023-03-29T01:02:39.135Z,43.64
2023-03-29T01:05:12.073Z,43.68
2023-03-29T01:07:45.883Z,43.77
2023-03-29T01:10:19.183Z,43.69
2023-03-29T01:12:53.173Z,43.71
2023-03-29T01:15:25.812Z,43.71
2023-03-29T01:17:59.192Z,43.65
2023-03-29T01:20:31.955Z,43.63
2023-03-29T01:23:04.856Z,43.66
2023-03-29T01:25:38.240Z,43.65
2023-03-29T01:28:10.857Z,43.71
2023-03-29T01:30:44.452Z,43.67
2023-03-29T01:33:18.142Z,43.69
2023-03-29T01:35:51.274Z,43.64
2023-03-29T01:38:23.909Z,43.72
2023-03-29T01:40:56.892Z,43.69
2023-03-29T01:43:30.048Z,43.69
2023-03-29T01:46:07.192Z,43.69
2023-03-29T01:48:41.203Z,43.72
2023-03-29T01:51:15.124Z,43.68
2023-03-29T01:53:48.405Z,43.71
2023-03-29T01:56:22.215Z,43.74
2023-03-29T01:58:55.263Z,43.77
2023-03-29T02:01:28.360Z,43.73
2023-03-29T02:04:02.897Z,43.93
2023-03-29T02:06:36.933Z,43.93
2023-03-29T02:09:10.208Z,43.92
2023-03-29T02:11:43.258Z,43.98
2023-03-29T02:14:16.176Z,43.90
2023-03-29T02:16:48.906Z,43.90
2023-03-29T02:19:21.950Z,43.91
2023-03-29T02:21:55.255Z,43.94
2023-03-29T02:24:28.015Z,43.94
2023-03-29T02:27:01.313Z,43.93
2023-03-29T02:29:34.446Z,43.95
2023-03-29T02:32:08.122Z,43.96
2023-03-29T02:34:41.169Z,43.97
2023-03-29T02:37:15.444Z,43.96
2023-03-29T02:39:49.143Z,43.94
2023-03-29T02:42:22.360Z,43.95
2023-03-29T02:44:55.041Z,43.94
2023-03-29T02:47:28.167Z,43.85
2023-03-29T02:50:01.295Z,43.89
2023-03-29T02:52:34.303Z,43.84
2023-03-29T02:55:07.036Z,43.81
2023-03-29T02:57:40.360Z,43.78
2023-03-29T03:00:13.247Z,43.80
2023-03-29T03:02:46.279Z,43.82
2023-03-29T03:05:19.177Z,43.80
2023-03-29T03:08:06.262Z,43.77
2023-03-29T03:10:39.072Z,43.78
2023-03-29T03:13:17.908Z,43.73
2023-03-29T03:15:51.249Z,43.75
2023-03-29T03:18:24.305Z,43.80
2023-03-29T03:20:57.218Z,43.80
2023-03-29T03:23:33.162Z,43.78
2023-03-29T03:26:06.021Z,43.78
2023-03-29T03:28:39.811Z,43.83
2023-03-29T03:31:14.139Z,43.93
2023-03-29T03:33:47.218Z,43.99
2023-03-29T03:36:20.216Z,44.11
2023-03-29T03:38:53.373Z,44.10
2023-03-29T03:41:26.430Z,44.07
2023-03-29T03:43:59.499Z,44.06
2023-03-29T03:46:33.102Z,44.01
2023-03-29T03:49:06.027Z,44.03
2023-03-29T03:51:39.162Z,44.00
2023-03-29T03:54:12.327Z,44.02
2023-03-29T03:56:45.239Z,44.01
2023-03-29T03:59:18.070Z,44.01
2023-03-29T04:01:52.542Z,44.00
2023-03-29T04:04:26.246Z,44.00
2023-03-29T04:07:00.188Z,43.98
2023-03-29T04:09:33.402Z,44.02
2023-03-29T04:12:06.070Z,44.04
2023-03-29T04:14:39.154Z,44.03
2023-03-29T04:17:12.360Z,44.07
2023-03-29T04:19:45.374Z,44.10
2023-03-29T04:22:18.353Z,44.14
2023-03-29T04:24:51.488Z,44.16
2023-03-29T04:27:30.646Z,44.22
2023-03-29T04:30:04.384Z,44.24
2023-03-29T04:32:37.295Z,44.30
2023-03-29T04:35:10.263Z,44.25
2023-03-29T04:37:43.555Z,44.27
2023-03-29T04:40:17.394Z,44.30
2023-03-29T04:42:50.272Z,44.32
2023-03-29T04:45:23.184Z,44.32
2023-03-29T04:47:56.285Z,44.28
2023-03-29T04:50:29.176Z,44.28
2023-03-29T04:53:02.137Z,44.31
2023-03-29T04:55:35.347Z,44.29
2023-03-29T04:58:08.155Z,44.29
2023-03-29T05:00:41.325Z,44.30
2023-03-29T05:03:14.450Z,44.30
2023-03-29T05:05:47.536Z,44.41
2023-03-29T05:08:20.415Z,43.28
2023-03-29T05:10:53.567Z,42.02
2023-03-29T05:13:26.295Z,40.70
2023-03-29T05:15:59.508Z,40.88
2023-03-29T05:18:32.287Z,41.22
2023-03-29T05:21:05.473Z,41.01
2023-03-29T05:23:38.420Z,41.78
2023-03-29T05:26:11.532Z,42.13
2023-03-29T05:28:44.314Z,42.23
2023-03-29T05:31:17.360Z,42.35
2023-03-29T05:33:50.602Z,42.37
2023-03-29T05:36:23.481Z,42.41
2023-03-29T05:38:56.474Z,42.46
2023-03-29T05:41:29.584Z,42.51
2023-03-29T05:44:02.334Z,42.53
2023-03-29T05:46:35.490Z,42.56
2023-03-29T05:49:08.475Z,42.58
2023-03-29T05:51:41.355Z,42.62
2023-03-29T05:54:14.594Z,42.63
2023-03-29T05:56:47.634Z,42.61
2023-03-29T05:59:20.334Z,42.63
2023-03-29T06:01:53.619Z,42.66
2023-03-29T06:04:26.524Z,42.65
2023-03-29T06:06:59.241Z,42.63
2023-03-29T06:09:32.399Z,42.66
2023-03-29T06:12:05.292Z,42.66
2023-03-29T06:14:38.326Z,42.68
2023-03-29T06:17:17.221Z,42.67
2023-03-29T06:19:50.760Z,42.68
2023-03-29T06:22:24.584Z,42.69
2023-03-29T06:24:57.646Z,42.70
2023-03-29T06:27:30.441Z,42.69
2023-03-29T06:30:03.573Z,42.71
2023-03-29T06:32:36.416Z,42.71
2023-03-29T06:35:09.303Z,42.70
2023-03-29T06:37:42.648Z,42.70
2023-03-29T06:40:15.301Z,42.73
2023-03-29T06:42:49.017Z,42.72
2023-03-29T06:45:24.351Z,42.73
2023-03-29T06:47:55.346Z,42.73
2023-03-29T06:50:28.645Z,42.73
2023-03-29T06:53:01.314Z,42.77
2023-03-29T06:55:34.830Z,42.76
2023-03-29T06:58:08.355Z,42.78
2023-03-29T07:00:41.308Z,42.77
2023-03-29T07:03:14.700Z,42.79
2023-03-29T07:05:47.835Z,42.79
2023-03-29T07:08:21.618Z,42.78
2023-03-29T07:10:54.670Z,42.79
2023-03-29T07:13:27.770Z,42.81
2023-03-29T07:16:00.868Z,42.79
2023-03-29T07:18:34.679Z,42.81
2023-03-29T07:21:07.380Z,42.80
2023-03-29T07:23:40.746Z,42.80
2023-03-29T07:26:13.906Z,42.80
2023-03-29T07:28:46.914Z,42.79
2023-03-29T07:31:20.879Z,42.77
2023-03-29T07:33:54.635Z,42.80
2023-03-29T07:36:28.811Z,42.77
2023-03-29T07:39:01.729Z,42.80
2023-03-29T07:41:34.724Z,42.80
2023-03-29T07:44:07.421Z,42.77
2023-03-29T07:46:40.538Z,42.79
2023-03-29T07:49:13.387Z,42.77
2023-03-29T07:51:46.740Z,42.77
2023-03-29T07:54:19.724Z,42.77
2023-03-29T07:56:52.747Z,42.78
2023-03-29T07:59:25.759Z,42.75
2023-03-29T08:01:58.877Z,42.75
2023-03-29T08:04:32.911Z,42.75
2023-03-29T08:07:05.430Z,42.76
2023-03-29T08:09:38.719Z,42.78
2023-03-29T08:12:11.521Z,42.73
2023-03-29T08:14:44.853Z,42.76
2023-03-29T08:17:17.449Z,42.74
2023-03-29T08:19:51.778Z,42.73
2023-03-29T08:22:23.727Z,42.70
2023-03-29T08:24:56.521Z,42.71
2023-03-29T08:27:43.478Z,42.67
2023-03-29T08:30:16.798Z,42.71
2023-03-29T08:32:52.167Z,42.66
2023-03-29T08:35:23.055Z,42.71
2023-03-29T08:37:56.608Z,42.65
2023-03-29T08:40:29.945Z,42.70
2023-03-29T08:43:03.594Z,42.71
2023-03-29T08:45:36.618Z,42.66
2023-03-29T08:48:09.473Z,42.65
2023-03-29T08:50:42.612Z,42.62
2023-03-29T08:53:29.742Z,42.67
2023-03-29T08:56:02.801Z,42.63
2023-03-29T08:58:35.880Z,42.60
2023-03-29T09:01:08.788Z,42.63
2023-03-29T09:03:41.997Z,42.63
2023-03-29T09:06:14.783Z,42.61
2023-03-29T09:08:47.938Z,42.57
2023-03-29T09:11:21.809Z,42.59
2023-03-29T09:13:54.619Z,42.61
2023-03-29T09:16:27.963Z,42.50
2023-03-29T09:19:00.666Z,42.62
2023-03-29T09:21:33.901Z,42.58
2023-03-29T09:24:06.805Z,42.54
2023-03-29T09:26:39.867Z,42.54
2023-03-29T09:29:12.533Z,42.54
2023-03-29T09:31:45.951Z,42.59
2023-03-29T09:34:18.624Z,42.53
2023-03-29T09:36:51.766Z,42.50
2023-03-29T09:39:24.732Z,42.57
2023-03-29T09:41:57.933Z,42.54
2023-03-29T09:44:33.852Z,42.52
2023-03-29T09:47:06.583Z,42.60
2023-03-29T09:49:39.902Z,42.51
2023-03-29T09:52:12.852Z,42.51
2023-03-29T09:54:45.705Z,42.54
2023-03-29T09:57:19.025Z,42.59
2023-03-29T09:59:51.853Z,42.59
2023-03-29T10:02:24.972Z,42.51
2023-03-29T10:04:57.992Z,42.55
2023-03-29T10:07:30.746Z,42.53
2023-03-29T10:10:03.866Z,42.49
2023-03-29T10:12:36.976Z,42.53
2023-03-29T10:15:16.756Z,42.50
2023-03-29T10:17:43.048Z,42.52
2023-03-29T10:20:15.816Z,42.53
2023-03-29T10:22:48.963Z,42.55
2023-03-29T10:25:21.664Z,42.55
2023-03-29T10:27:54.961Z,42.54
2023-03-29T10:30:28.109Z,42.52
2023-03-29T10:33:02.125Z,42.50
2023-03-29T10:35:35.153Z,42.50
2023-03-29T10:38:08.932Z,42.48
2023-03-29T10:40:42.024Z,42.51
2023-03-29T10:43:14.928Z,42.51
2023-03-29T10:45:48.059Z,42.52
2023-03-29T10:48:20.745Z,42.47
2023-03-29T10:50:53.945Z,42.49
2023-03-29T10:53:26.951Z,42.45
2023-03-29T10:56:00.166Z,42.49
2023-03-29T10:58:34.055Z,42.48
2023-03-29T11:01:06.752Z,42.44
2023-03-29T11:03:40.572Z,42.44
2023-03-29T11:06:16.899Z,42.42
2023-03-29T11:08:50.082Z,42.33
2023-03-29T11:11:24.141Z,42.29
2023-03-29T11:13:59.817Z,42.32
2023-03-29T11:16:30.947Z,42.31
2023-03-29T11:19:03.902Z,42.27
2023-03-29T11:21:36.958Z,42.25
2023-03-29T11:24:09.963Z,42.25
2023-03-29T11:26:43.147Z,42.30
2023-03-29T11:29:15.730Z,42.35
2023-03-29T11:31:48.866Z,42.36
2023-03-29T11:34:21.776Z,42.36
2023-03-29T11:36:54.850Z,42.39
2023-03-29T11:39:28.043Z,42.39
2023-03-29T11:42:00.885Z,42.38
2023-03-29T11:44:34.042Z,42.37
2023-03-29T11:47:06.902Z,42.40
2023-03-29T11:49:39.904Z,42.41
2023-03-29T11:52:12.752Z,42.37
2023-03-29T11:54:45.768Z,42.38
2023-03-29T11:57:18.824Z,42.40
2023-03-29T11:59:51.880Z,42.36
2023-03-29T12:02:25.186Z,42.40
2023-03-29T12:04:57.991Z,42.39
2023-03-29T12:07:30.807Z,42.41
2023-03-29T12:10:03.890Z,42.38
2023-03-29T12:12:36.914Z,42.39
2023-03-29T12:15:09.790Z,42.38
2023-03-29T12:17:42.809Z,42.38
2023-03-29T12:20:15.822Z,42.39
2023-03-29T12:22:48.826Z,42.39
2023-03-29T12:25:23.327Z,42.38
2023-03-29T12:27:54.926Z,42.39
2023-03-29T12:30:28.194Z,42.41
2023-03-29T12:33:00.880Z,42.41
2023-03-29T12:35:33.972Z,42.44
2023-03-29T12:38:06.980Z,42.40
2023-03-29T12:40:39.976Z,42.42
2023-03-29T12:43:12.832Z,42.42
2023-03-29T12:45:45.985Z,42.39
2023-03-29T12:48:18.834Z,42.43
2023-03-29T12:50:52.005Z,42.38
2023-03-29T12:53:24.854Z,42.39
2023-03-29T12:55:57.958Z,42.41
2023-03-29T12:58:30.995Z,42.42
2023-03-29T13:01:05.794Z,42.42
2023-03-29T13:03:37.323Z,42.39
2023-03-29T13:06:11.060Z,42.39
2023-03-29T13:08:44.141Z,42.41
2023-03-29T13:11:16.870Z,42.42
2023-03-29T13:13:50.380Z,42.43
2023-03-29T13:16:24.399Z,42.42
2023-03-29T13:18:58.242Z,42.40
2023-03-29T13:21:31.086Z,42.39
2023-03-29T13:24:04.011Z,42.34
2023-03-29T13:26:37.086Z,42.32
2023-03-29T13:29:10.006Z,42.32
2023-03-29T13:31:43.012Z,42.31
2023-03-29T13:34:16.061Z,42.33
2023-03-29T13:36:49.091Z,42.33
2023-03-29T13:39:21.937Z,42.30
2023-03-29T13:41:54.914Z,42.25
2023-03-29T13:44:27.913Z,42.22
2023-03-29T13:47:01.150Z,42.21
2023-03-29T13:49:34.285Z,42.19
2023-03-29T13:52:07.073Z,42.20
2023-03-29T13:54:40.017Z,42.18
2023-03-29T13:57:13.155Z,42.15
2023-03-29T13:59:46.126Z,42.15
2023-03-29T14:02:19.011Z,42.16
2023-03-29T14:04:52.258Z,42.17
2023-03-29T14:07:25.026Z,42.20
2023-03-29T14:09:58.157Z,42.16
2023-03-29T14:12:31.324Z,42.11
2023-03-29T14:15:04.095Z,42.13
2023-03-29T14:17:37.162Z,42.14
2023-03-29T14:20:10.338Z,42.12
2023-03-29T14:22:43.111Z,42.17
2023-03-29T14:25:16.254Z,42.17
2023-03-29T14:27:49.011Z,42.17
2023-03-29T14:30:22.001Z,42.17
2023-03-29T14:32:55.151Z,42.19
2023-03-29T14:35:28.345Z,42.22
2023-03-29T14:38:01.352Z,42.21
2023-03-29T14:40:34.349Z,42.25
2023-03-29T14:43:07.331Z,42.22
2023-03-29T14:45:40.214Z,42.25
2023-03-29T14:48:13.202Z,42.24
2023-03-29T14:50:46.196Z,42.25
2023-03-29T14:53:19.387Z,42.39
2023-03-29T14:55:52.378Z,42.43
2023-03-29T14:58:25.466Z,42.43
2023-03-29T15:01:01.118Z,42.38
2023-03-29T15:03:34.183Z,42.34
2023-03-29T15:06:07.412Z,42.33
2023-03-29T15:08:44.007Z,42.27
2023-03-29T15:11:13.324Z,42.37
2023-03-29T15:13:46.541Z,42.46
2023-03-29T15:16:20.359Z,42.51
2023-03-29T15:18:53.421Z,42.60
2023-03-29T15:21:26.433Z,42.63
2023-03-29T15:23:59.381Z,42.70
2023-03-29T15:26:32.068Z,42.73
2023-03-29T15:29:05.110Z,42.75
2023-03-29T15:31:38.346Z,42.69
2023-03-29T15:34:11.104Z,42.62
2023-03-29T15:36:44.376Z,42.68
2023-03-29T15:39:17.388Z,42.75
2023-03-29T15:41:50.295Z,42.77
2023-03-29T15:44:23.399Z,42.82
2023-03-29T15:46:56.405Z,42.85
2023-03-29T15:49:29.239Z,42.90
2023-03-29T15:52:02.406Z,42.89
2023-03-29T15:54:35.395Z,42.91
2023-03-29T15:57:08.373Z,42.93
2023-03-29T15:59:41.294Z,42.96
2023-03-29T16:02:14.534Z,42.96
2023-03-29T16:04:47.285Z,42.98
2023-03-29T16:07:20.194Z,42.99
2023-03-29T16:09:53.168Z,43.03
2023-03-29T16:12:26.183Z,43.05
2023-03-29T16:14:59.156Z,43.11
2023-03-29T16:17:32.338Z,43.11
2023-03-29T16:20:05.461Z,43.16
2023-03-29T16:22:38.484Z,43.15
2023-03-29T16:25:11.580Z,43.15
2023-03-29T16:27:44.169Z,43.14
2023-03-29T16:30:17.209Z,43.19
2023-03-29T16:32:50.576Z,43.16
2023-03-29T16:35:23.185Z,43.17
2023-03-29T16:37:56.321Z,43.15
2023-03-29T16:40:29.232Z,43.18
2023-03-29T16:43:02.303Z,43.23
2023-03-29T16:45:35.482Z,43.19
2023-03-29T16:48:11.540Z,43.21
2023-03-29T16:50:44.365Z,43.22
2023-03-29T16:53:17.194Z,43.23
2023-03-29T16:55:50.338Z,43.22
2023-03-29T16:58:23.219Z,43.23
2023-03-29T17:00:56.310Z,43.25
2023-03-29T17:03:29.382Z,43.22
2023-03-29T17:06:02.420Z,43.25
2023-03-29T17:08:35.244Z,43.23
2023-03-29T17:11:08.437Z,43.25
2023-03-29T17:13:41.581Z,43.22
2023-03-29T17:16:14.399Z,43.16
2023-03-29T17:18:47.334Z,43.16
2023-03-29T17:21:20.254Z,43.13
2023-03-29T17:23:53.441Z,43.09
2023-03-29T17:26:26.444Z,43.08
2023-03-29T17:28:59.366Z,43.08
2023-03-29T17:31:32.425Z,43.01
2023-03-29T17:34:05.513Z,43.01
2023-03-29T17:36:38.515Z,43.04
2023-03-29T17:39:11.377Z,43.01
2023-03-29T17:41:44.469Z,42.91
2023-03-29T17:44:20.201Z,42.97
2023-03-29T17:46:53.395Z,42.99
2023-03-29T17:49:26.263Z,42.99
2023-03-29T17:51:59.508Z,43.01
2023-03-29T17:54:32.429Z,43.03
2023-03-29T17:57:07.540Z,43.00
2023-03-29T17:59:40.607Z,43.02
2023-03-29T18:02:13.349Z,43.08
2023-03-29T18:04:49.187Z,43.13
2023-03-29T18:07:22.334Z,43.17
2023-03-29T18:09:55.316Z,43.19
2023-03-29T18:12:28.361Z,43.22
2023-03-29T18:15:01.673Z,43.23
2023-03-29T18:17:34.342Z,43.23
2023-03-29T18:20:07.307Z,43.23
2023-03-29T18:22:40.672Z,43.29
2023-03-29T18:25:13.588Z,43.28
2023-03-29T18:27:46.684Z,43.32
2023-03-29T18:30:19.687Z,43.28
2023-03-29T18:32:52.506Z,43.31
2023-03-29T18:35:28.279Z,43.33
2023-03-29T18:38:01.474Z,43.31
2023-03-29T18:40:34.584Z,43.31
2023-03-29T18:43:07.735Z,43.31
2023-03-29T18:45:40.475Z,43.33
2023-03-29T18:48:13.557Z,43.32
2023-03-29T18:50:46.513Z,43.32
2023-03-29T18:53:19.411Z,43.36
2023-03-29T18:55:52.670Z,43.38
2023-03-29T18:58:25.774Z,43.41
2023-03-29T19:00:58.738Z,43.39
2023-03-29T19:03:31.810Z,43.49
2023-03-29T19:06:05.027Z,43.41
2023-03-29T19:08:37.709Z,43.40
2023-03-29T19:11:10.619Z,43.44
2023-03-29T19:13:43.553Z,43.44
2023-03-29T19:16:16.512Z,43.42
2023-03-29T19:18:49.780Z,43.44
2023-03-29T19:21:22.716Z,43.41
2023-03-29T19:23:55.678Z,43.45
2023-03-29T19:26:28.770Z,43.44
2023-03-29T19:29:01.750Z,43.44
2023-03-29T19:31:34.498Z,43.44
2023-03-29T19:34:07.557Z,43.44
2023-03-29T19:36:40.593Z,43.50
2023-03-29T19:39:13.588Z,43.46
2023-03-29T19:41:46.626Z,43.49
2023-03-29T19:44:19.483Z,43.44
2023-03-29T19:46:52.758Z,43.48
2023-03-29T19:49:25.459Z,43.48
2023-03-29T19:51:58.772Z,43.45
2023-03-29T19:54:31.470Z,43.48
2023-03-29T19:57:04.614Z,43.50
2023-03-29T19:59:37.733Z,43.50
2023-03-29T20:02:11.000Z,43.58
2023-03-29T20:04:43.776Z,43.52
2023-03-29T20:07:16.472Z,43.53
2023-03-29T20:09:49.733Z,43.55
2023-03-29T20:12:22.486Z,43.53
2023-03-29T20:14:55.886Z,43.53
2023-03-29T20:17:28.511Z,43.56
2023-03-29T20:20:01.910Z,43.59
2023-03-29T20:22:34.522Z,43.58
2023-03-29T20:25:07.691Z,43.59
2023-03-29T20:27:40.531Z,43.57
2023-03-29T20:30:13.663Z,43.58
2023-03-29T20:32:50.491Z,43.57
2023-03-29T20:35:23.509Z,43.56
2023-03-29T20:37:56.534Z,43.56
2023-03-29T20:40:29.966Z,43.56
2023-03-29T20:43:02.845Z,43.48
2023-03-29T20:45:49.841Z,43.54
2023-03-29T20:48:08.900Z,43.56
2023-03-29T20:50:41.840Z,43.59
2023-03-29T20:53:14.945Z,43.59
2023-03-29T20:55:48.241Z,43.58
2023-03-29T20:58:20.857Z,43.57
2023-03-29T21:00:53.588Z,43.54
2023-03-29T21:03:26.909Z,43.41
2023-03-29T21:05:59.920Z,43.50
2023-03-29T21:08:32.872Z,43.55
2023-03-29T21:11:05.693Z,43.56
2023-03-29T21:13:38.577Z,43.64
2023-03-29T21:16:11.787Z,43.66
2023-03-29T21:18:44.557Z,43.72
2023-03-29T21:21:17.588Z,43.71
2023-03-29T21:23:50.928Z,43.77
2023-03-29T21:26:23.614Z,43.79
2023-03-29T21:29:00.772Z,43.78
2023-03-29T21:31:34.170Z,43.79
2023-03-29T21:34:07.912Z,43.81
2023-03-29T21:36:40.856Z,43.83
2023-03-29T21:39:13.626Z,43.81
2023-03-29T21:41:46.615Z,43.78
2023-03-29T21:44:19.888Z,43.79
2023-03-29T21:46:53.019Z,43.80
2023-03-29T21:49:26.084Z,43.74
2023-03-29T21:54:50.040Z,43.81
2023-03-29T21:57:23.025Z,43.77
2023-03-29T21:59:56.078Z,43.78
2023-03-29T22:02:30.096Z,43.82
2023-03-29T22:05:02.994Z,43.82
2023-03-29T22:07:35.975Z,43.86
2023-03-29T22:10:08.918Z,43.89
2023-03-29T22:12:41.920Z,43.90
2023-03-29T22:15:14.964Z,43.97
2023-03-29T22:17:48.279Z,43.93
2023-03-29T22:20:22.019Z,44.03
2023-03-29T22:22:54.993Z,44.10
2023-03-29T22:25:27.944Z,44.11
2023-03-29T22:28:01.089Z,44.17
2023-03-29T22:30:33.823Z,44.26
2023-03-29T22:33:07.146Z,44.26
2023-03-29T22:35:39.732Z,44.33
2023-03-29T22:38:12.948Z,44.31
2023-03-29T22:40:46.084Z,44.40
2023-03-29T22:43:18.733Z,44.47
2023-03-29T22:45:52.090Z,44.44
2023-03-29T22:48:24.870Z,44.52
2023-03-29T22:50:58.015Z,44.55
2023-03-29T22:53:30.706Z,44.56
2023-03-29T22:56:03.987Z,44.67
2023-03-29T22:58:37.084Z,44.68
2023-03-29T23:01:10.016Z,44.77
2023-03-29T23:03:42.750Z,44.78
2023-03-29T23:06:16.018Z,44.74
2023-03-29T23:08:48.733Z,44.71
2023-03-29T23:11:22.083Z,44.81
2023-03-29T23:13:54.880Z,44.74
2023-03-29T23:16:28.088Z,44.79
2023-03-29T23:19:01.179Z,44.82
2023-03-29T23:21:34.123Z,44.75
2023-03-29T23:24:07.324Z,44.76
2023-03-29T23:26:41.195Z,44.82
2023-03-29T23:29:14.179Z,44.81
2023-03-29T23:31:47.128Z,44.75
2023-03-29T23:34:20.085Z,44.86
2023-03-29T23:36:53.104Z,44.76
2023-03-29T23:39:26.164Z,44.74
2023-03-29T23:41:59.307Z,44.74
2023-03-29T23:44:33.093Z,44.74
2023-03-29T23:47:06.231Z,44.80
2023-03-29T23:49:39.225Z,44.94
2023-03-29T23:52:12.165Z,44.93
2023-03-29T23:54:44.792Z,44.86
2023-03-29T23:57:18.253Z,44.92
2023-03-29T23:59:51.107Z,44.94
